Time;durP1;ratioP1;P1;durP2;ratioP2;P2;SDS_P1;SDS_P2;PMS_P1;PMS_P2;Temp;Humidity;BMP_temperature;BMP_pressure;BME280_temperature;BME280_humidity;BME280_pressure;Samples;Min_cycle;Max_cycle;Signal;HPM_P1;HPM_P2
2024/01/09 00:00:05;;;;;;;4.23;3.80;;;;;;;-4.35;100.00;102132.28;5092655;28;20040;-68
2024/01/09 00:02:35;;;;;;;3.50;3.20;;;;;;;-4.18;100.00;102161.38;5092644;28;20566;-70
2024/01/09 00:05:12;;;;;;;4.32;3.92;;;;;;;-4.18;100.00;102160.53;5092866;28;20128;-67
2024/01/09 00:07:38;;;;;;;4.85;3.47;;;;;;;-4.22;100.00;102144.13;5091194;28;20038;-68
2024/01/09 00:10:04;;;;;;;4.47;3.87;;;;;;;-4.34;100.00;102128.78;5092223;28;20040;-68
2024/01/09 00:12:30;;;;;;;3.67;3.38;;;;;;;-4.28;100.00;102120.88;5092111;28;20527;-67
2024/01/09 00:14:55;;;;;;;4.20;3.80;;;;;;;-4.37;100.00;102092.44;5092598;28;20133;-69
2024/01/09 00:17:20;;;;;;;3.60;3.30;;;;;;;-4.19;100.00;102122.41;5090825;28;20036;-70
2024/01/09 00:19:46;;;;;;;4.30;3.90;;;;;;;-4.14;100.00;102134.41;5092436;28;20352;-68
2024/01/09 00:22:11;;;;;;;5.10;4.60;;;;;;;-4.13;100.00;102133.50;5092362;28;20112;-71
2024/01/09 00:24:37;;;;;;;3.80;3.40;;;;;;;-4.15;100.00;102117.06;5092056;28;20047;-69
2024/01/09 00:27:02;;;;;;;3.43;3.13;;;;;;;-4.25;100.00;102092.19;5092201;28;20031;-68
2024/01/09 00:29:28;;;;;;;3.87;3.43;;;;;;;-4.10;100.00;102112.63;5092023;28;20040;-69
2024/01/09 00:31:54;;;;;;;4.80;2.90;;;;;;;-4.10;100.00;102101.34;5092224;28;20062;-69
2024/01/09 00:34:19;;;;;;;3.87;3.20;;;;;;;-4.12;100.00;102097.94;5105464;28;20284;-66
2024/01/09 00:36:45;;;;;;;7.37;2.97;;;;;;;-4.10;100.00;102093.53;5114786;28;20027;-68
2024/01/09 00:39:11;;;;;;;3.00;2.70;;;;;;;-4.25;100.00;102071.38;5114933;28;20165;-69
2024/01/09 00:41:37;;;;;;;3.78;3.45;;;;;;;-4.22;100.00;102060.88;5102898;28;20043;-68
2024/01/09 00:44:02;;;;;;;3.43;3.03;;;;;;;-4.27;100.00;102052.34;5091961;28;20032;-68
2024/01/09 00:46:28;;;;;;;6.27;2.80;;;;;;;-4.34;100.00;102022.16;5091708;28;20469;-67
2024/01/09 00:48:54;;;;;;;3.03;2.73;;;;;;;-4.24;100.00;102038.41;5091748;28;20085;-69
2024/01/09 00:51:20;;;;;;;3.80;2.80;;;;;;;-4.39;100.00;102001.47;5091151;28;20036;-70
2024/01/09 00:53:45;;;;;;;3.00;2.80;;;;;;;-4.10;100.00;102044.97;5089936;28;20127;-70
2024/01/09 00:56:11;;;;;;;4.77;3.30;;;;;;;-3.96;100.00;102075.00;5090983;28;20165;-69
2024/01/09 00:58:36;;;;;;;3.90;3.37;;;;;;;-3.98;100.00;102072.44;5090148;28;20526;-69
2024/01/09 01:01:03;;;;;;;4.77;3.03;;;;;;;-4.03;100.00;102050.03;5091248;28;20028;-68
2024/01/09 01:03:29;;;;;;;3.65;3.35;;;;;;;-4.06;100.00;102050.94;5090957;28;20092;-67
2024/01/09 01:05:55;;;;;;;4.15;3.22;;;;;;;-4.12;100.00;102031.16;5091018;28;20139;-68
2024/01/09 01:08:21;;;;;;;3.33;3.00;;;;;;;-4.08;100.00;102022.38;5091488;28;20131;-70
2024/01/09 01:10:47;;;;;;;5.55;3.20;;;;;;;-3.93;100.00;102044.56;5089719;28;20441;-70
2024/01/09 01:13:13;;;;;;;3.50;3.20;;;;;;;-3.92;100.00;102038.47;5089805;28;20081;-68
2024/01/09 01:15:38;;;;;;;3.97;3.03;;;;;;;-4.13;100.00;101997.38;5090701;28;20032;-68
2024/01/09 01:18:04;;;;;;;3.77;3.30;;;;;;;-3.94;100.00;102024.63;5091000;28;20039;-69
2024/01/09 01:20:30;;;;;;;4.30;3.07;;;;;;;-3.91;100.00;102015.91;5090966;28;20036;-70
2024/01/09 01:22:55;;;;;;;3.50;3.20;;;;;;;-3.84;100.00;102028.69;5091053;28;20036;-68
2024/01/09 01:25:21;;;;;;;3.20;2.90;;;;;;;-3.98;100.00;101996.13;5090873;28;20051;-70
2024/01/09 01:27:46;;;;;;;3.57;3.27;;;;;;;-3.94;100.00;101993.41;5091130;28;20036;-69
2024/01/09 01:30:12;;;;;;;4.00;3.10;;;;;;;-4.00;100.00;101977.09;5090759;28;20524;-69
2024/01/09 01:32:37;;;;;;;3.30;3.00;;;;;;;-3.83;100.00;102000.91;5090651;28;20054;-70
2024/01/09 01:35:03;;;;;;;3.20;2.90;;;;;;;-3.94;100.00;101989.94;5089215;28;20036;-69
2024/01/09 01:37:30;;;;;;;3.50;3.20;;;;;;;-4.17;100.00;101941.97;5089394;28;20455;-68
2024/01/09 01:39:55;;;;;;;3.27;3.00;;;;;;;-3.77;100.00;101991.19;5090610;28;20071;-68
2024/01/09 01:42:21;;;;;;;3.73;3.33;;;;;;;-3.77;100.00;101980.78;5090643;28;20121;-68
2024/01/09 01:44:46;;;;;;;2.70;2.43;;;;;;;-3.89;100.00;101965.50;5072695;28;20032;-69
2024/01/09 01:47:14;;;;;;;3.73;3.10;;;;;;;-4.62;100.00;101833.97;5090332;28;20202;-69
2024/01/09 01:49:40;;;;;;;3.30;2.92;;;;;;;-3.85;100.00;101961.91;5090438;28;20412;-68
2024/01/09 01:52:07;;;;;;;4.15;2.72;;;;;;;-3.76;100.00;101968.63;5090510;28;20040;-68
2024/01/09 01:54:35;;;;;;;3.00;2.70;;;;;;;-3.81;100.00;101955.72;5090673;28;20036;-67
2024/01/09 01:57:03;;;;;;;3.55;3.25;;;;;;;-3.77;100.00;101964.31;5090647;28;20040;-68
2024/01/09 01:59:32;;;;;;;2.88;2.67;;;;;;;-4.02;100.00;101906.03;5089227;28;20081;-68
2024/01/09 02:01:59;;;;;;;3.20;3.00;;;;;;;-3.66;100.00;101954.47;5089454;28;20056;-67
2024/01/09 02:04:25;;;;;;;4.22;3.08;;;;;;;-3.63;100.00;101943.97;5095278;28;20050;-71
2024/01/09 02:06:51;;;;;;;3.10;2.80;;;;;;;-3.62;100.00;101940.47;5096817;28;20131;-70
2024/01/09 02:09:18;;;;;;;2.92;2.72;;;;;;;-4.07;100.00;101865.38;5096930;28;20063;-70
2024/01/09 02:11:46;;;;;;;3.40;2.70;;;;;;;-3.64;100.00;101939.66;5093325;28;20047;-68
2024/01/09 02:14:12;;;;;;;2.78;2.58;;;;;;;-3.66;100.00;101933.63;5094634;28;20032;-70
2024/01/09 02:16:37;;;;;;;3.00;2.80;;;;;;;-3.57;100.00;101950.75;5094479;28;20112;-68
2024/01/09 02:19:23;;;;;;;3.35;3.05;;;;;;;-3.96;100.00;101877.25;5065068;28;20031;-69
2024/01/09 02:21:50;;;;;;;4.13;2.90;;;;;;;-3.54;100.00;101938.50;5092946;28;20445;-68
2024/01/09 02:24:18;;;;;;;3.13;2.83;;;;;;;-3.61;100.00;101918.75;5094107;28;20452;-69
2024/01/09 02:26:48;;;;;;;2.65;2.45;;;;;;;-3.52;100.00;101934.09;5093027;28;20063;-67
2024/01/09 02:29:21;;;;;;;4.45;3.47;;;;;;;-3.53;100.00;101921.97;5094258;28;20036;-68
2024/01/09 02:31:47;;;;;;;3.65;3.30;;;;;;;-3.49;100.00;101928.78;5093910;28;20047;-70
2024/01/09 02:34:14;;;;;;;3.72;3.42;;;;;;;-3.49;100.00;101939.19;5093887;28;20036;-69
2024/01/09 02:36:40;;;;;;;4.18;2.88;;;;;;;-3.58;100.00;101913.44;5093967;28;20076;-68
2024/01/09 02:39:07;;;;;;;4.60;3.20;;;;;;;-3.44;100.00;101916.50;5094052;28;20068;-68
2024/01/09 02:41:39;;;;;;;4.38;2.80;;;;;;;-3.51;100.00;101896.72;5094044;28;20032;-68
2024/01/09 02:44:05;;;;;;;4.25;3.30;;;;;;;-3.41;100.00;101909.50;5092770;28;20047;-67
2024/01/09 02:46:30;;;;;;;12.13;5.00;;;;;;;-3.42;100.00;101913.84;5075567;28;20028;-69
2024/01/09 02:48:56;;;;;;;3.47;3.17;;;;;;;-3.43;100.00;101896.53;5092437;28;20036;-66
2024/01/09 02:51:21;;;;;;;7.27;4.00;;;;;;;-3.47;100.00;101869.72;5092689;28;20555;-68
2024/01/09 02:53:47;;;;;;;3.63;3.30;;;;;;;-3.45;100.00;101857.50;5092795;28;20036;-68
2024/01/09 02:56:14;;;;;;;3.67;3.38;;;;;;;-3.72;100.00;101811.47;5093868;28;20028;-68
2024/01/09 02:58:39;;;;;;;6.55;3.53;;;;;;;-3.38;100.00;101867.72;5093434;28;20050;-68
2024/01/09 03:01:06;;;;;;;3.73;3.33;;;;;;;-3.36;100.00;101848.56;5093802;28;20114;-67
2024/01/09 03:03:33;;;;;;;4.60;4.20;;;;;;;-3.45;100.00;101831.47;5093730;28;20075;-68
2024/01/09 03:05:58;;;;;;;5.13;3.53;;;;;;;-3.43;100.00;101823.59;5093631;28;20116;-68
2024/01/09 03:08:24;;;;;;;4.23;3.93;;;;;;;-3.55;100.00;101803.97;5094493;28;20484;-66
2024/01/09 03:10:50;;;;;;;4.53;4.13;;;;;;;-3.94;100.00;101737.53;5094926;28;20054;-66
2024/01/09 03:13:15;;;;;;;5.10;4.70;;;;;;;-3.37;100.00;101819.94;5093737;28;20160;-69
2024/01/09 03:15:40;;;;;;;5.23;4.73;;;;;;;-3.34;100.00;101828.50;5094776;28;20140;-69
2024/01/09 03:18:06;;;;;;;5.33;4.83;;;;;;;-3.40;100.00;101801.81;5096241;28;20124;-67
2024/01/09 03:20:32;;;;;;;5.93;5.33;;;;;;;-3.30;100.00;101824.06;5094140;28;20036;-71
2024/01/09 03:22:57;;;;;;;7.07;6.20;;;;;;;-3.52;100.00;101772.63;5094211;28;20451;-70
2024/01/09 03:25:26;;;;;;;6.67;4.67;;;;;;;-3.19;100.00;101821.94;5093411;28;20436;-69
2024/01/09 03:27:54;;;;;;;4.97;4.43;;;;;;;-3.24;100.00;101792.59;5093092;28;20071;-68
2024/01/09 03:30:22;;;;;;;5.57;4.88;;;;;;;-3.23;100.00;101757.81;5093476;28;20062;-68
2024/01/09 03:32:48;;;;;;;5.57;5.07;;;;;;;-3.14;100.00;101773.19;5093079;28;20028;-68
2024/01/09 03:35:13;;;;;;;9.77;6.27;;;;;;;-3.19;100.00;101772.44;5093413;28;20131;-68
2024/01/09 03:37:39;;;;;;;7.30;6.47;;;;;;;-3.27;100.00;101745.81;5093158;28;20032;-67
2024/01/09 03:40:05;;;;;;;8.70;6.53;;;;;;;-3.06;100.00;101767.69;5093307;28;20036;-67
2024/01/09 03:42:30;;;;;;;7.70;6.90;;;;;;;-3.17;100.00;101737.66;5093574;28;20032;-68
2024/01/09 03:44:56;;;;;;;7.53;6.73;;;;;;;-3.09;100.00;101744.34;5095193;28;20127;-68
2024/01/09 03:47:21;;;;;;;10.07;9.07;;;;;;;-3.04;100.00;101730.25;5094106;28;20115;-68
2024/01/09 03:49:47;;;;;;;9.87;8.20;;;;;;;-3.01;100.00;101721.47;5092931;28;20411;-68
2024/01/09 03:52:13;;;;;;;9.67;7.27;;;;;;;-2.88;100.00;101733.22;5092533;28;20031;-69
2024/01/09 03:54:38;;;;;;;10.53;7.30;;;;;;;-3.08;100.00;101694.78;5093091;28;20659;-71
2024/01/09 03:57:04;;;;;;;9.63;7.60;;;;;;;-2.97;100.00;101703.06;5092638;28;20047;-68
2024/01/09 03:59:30;;;;;;;8.70;7.47;;;;;;;-2.84;100.00;101709.56;5092471;28;20503;-69
2024/01/09 04:01:55;;;;;;;10.10;7.67;;;;;;;-2.80;100.00;101718.13;5092729;28;20060;-68
2024/01/09 04:04:21;;;;;;;7.93;7.13;;;;;;;-2.87;100.00;101686.22;5091357;28;20404;-68
2024/01/09 04:06:48;;;;;;;9.60;6.90;;;;;;;-2.88;100.00;101676.72;5092260;28;20035;-68
2024/01/09 04:09:13;;;;;;;9.25;7.05;;;;;;;-2.88;100.00;101668.88;5092494;28;20085;-68
2024/01/09 04:11:45;;;;;;;8.03;6.90;;;;;;;-2.85;100.00;101660.97;5092292;28;20556;-66
2024/01/09 04:14:11;;;;;;;8.65;6.13;;;;;;;-2.75;100.00;101677.09;5092277;28;20115;-67
2024/01/09 04:16:37;;;;;;;10.40;6.20;;;;;;;-3.06;100.00;101617.41;5092818;28;20115;-69
2024/01/09 04:19:03;;;;;;;9.18;7.10;;;;;;;-2.70;100.00;101666.50;5092468;28;20555;-68
2024/01/09 04:21:28;;;;;;;6.10;5.50;;;;;;;-2.75;100.00;101648.44;5090790;28;20036;-68
2024/01/09 04:23:54;;;;;;;7.30;5.93;;;;;;;-2.59;100.00;101656.56;5090787;28;20028;-68
2024/01/09 04:26:20;;;;;;;10.60;8.03;;;;;;;-2.67;100.00;101633.34;5089921;28;20039;-68
2024/01/09 04:28:45;;;;;;;7.63;6.27;;;;;;;-2.56;100.00;101641.63;5091992;28;20036;-67
2024/01/09 04:31:11;;;;;;;7.40;6.13;;;;;;;-2.62;100.00;101622.72;5091703;28;20101;-69
2024/01/09 04:33:36;;;;;;;6.60;5.83;;;;;;;-2.61;100.00;101616.59;5092670;28;20104;-68
2024/01/09 04:36:02;;;;;;;7.27;6.07;;;;;;;-2.55;100.00;101621.63;5090711;28;20034;-69
2024/01/09 04:38:27;;;;;;;7.77;5.33;;;;;;;-2.54;100.00;101612.88;5090939;28;20032;-67
2024/01/09 04:40:53;;;;;;;6.67;5.43;;;;;;;-2.58;100.00;101606.94;5091956;28;20032;-70
2024/01/09 04:43:18;;;;;;;7.87;5.37;;;;;;;-2.72;100.00;101579.66;5090442;28;20028;-69
2024/01/09 04:45:44;;;;;;;8.13;5.43;;;;;;;-2.61;100.00;101590.53;5090403;28;20036;-70
2024/01/09 04:48:09;;;;;;;8.00;6.30;;;;;;;-2.61;100.00;101585.31;5094000;28;20028;-67
2024/01/09 04:50:35;;;;;;;8.30;5.83;;;;;;;-2.75;100.00;101558.94;5095366;28;20133;-68
2024/01/09 04:53:00;;;;;;;7.30;6.60;;;;;;;-2.51;100.00;101594.50;5077780;28;20466;-69
2024/01/09 04:55:26;;;;;;;8.23;6.83;;;;;;;-2.46;100.00;101592.56;5096283;28;20103;-70
2024/01/09 04:57:51;;;;;;;9.47;5.60;;;;;;;-2.54;100.00;101566.78;5092796;28;20034;-67
2024/01/09 05:00:19;;;;;;;7.93;7.13;;;;;;;-2.49;100.00;101564.00;5091593;28;20154;-68
2024/01/09 05:02:48;;;;;;;10.55;5.75;;;;;;;-2.43;100.00;101558.53;5091083;28;20055;-69
2024/01/09 05:05:14;;;;;;;7.43;6.55;;;;;;;-2.33;100.00;101565.06;5091724;28;20039;-69
2024/01/09 05:07:40;;;;;;;7.53;5.80;;;;;;;-2.45;100.00;101536.88;5100181;28;20066;-68
2024/01/09 05:10:06;;;;;;;6.87;5.73;;;;;;;-2.50;100.00;101516.19;5103346;28;20051;-68
2024/01/09 05:12:31;;;;;;;7.37;5.73;;;;;;;-2.33;100.00;101532.91;5105211;28;20441;-68
2024/01/09 05:14:57;;;;;;;6.87;5.50;;;;;;;-2.32;100.00;101529.41;5100661;28;20028;-69
2024/01/09 05:17:22;;;;;;;13.77;7.97;;;;;;;-2.27;100.00;101527.47;5079158;28;20028;-69
2024/01/09 05:19:48;;;;;;;9.00;5.80;;;;;;;-2.09;100.00;101544.13;5100288;28;20024;-69
2024/01/09 05:22:13;;;;;;;8.43;6.27;;;;;;;-2.09;100.00;101537.16;5105682;28;20031;-67
2024/01/09 05:24:39;;;;;;;7.13;6.03;;;;;;;-2.02;100.00;101532.56;5079552;28;20039;-72
2024/01/09 05:27:04;;;;;;;9.77;6.30;;;;;;;-2.02;100.00;101501.22;5098634;28;20067;-72
2024/01/09 05:29:30;;;;;;;9.03;5.97;;;;;;;-2.13;100.00;101451.22;5096084;28;20040;-71
2024/01/09 05:31:55;;;;;;;10.17;6.20;;;;;;;-1.88;100.00;101493.66;5092999;28;20079;-71
2024/01/09 05:34:21;;;;;;;7.70;6.23;;;;;;;-1.93;100.00;101491.25;5092470;28;20063;-70
2024/01/09 05:36:48;;;;;;;11.73;5.93;;;;;;;-2.20;100.00;101433.22;5092002;28;20036;-70
2024/01/09 05:39:14;;;;;;;8.70;6.47;;;;;;;-1.80;100.00;101494.16;5091299;28;20059;-69
2024/01/09 05:41:40;;;;;;;8.20;6.07;;;;;;;-1.94;100.00;101463.44;5093066;28;20475;-66
2024/01/09 05:44:05;;;;;;;13.53;7.40;;;;;;;-1.93;100.00;101474.72;5094950;28;20067;-69
2024/01/09 05:46:31;;;;;;;14.30;8.83;;;;;;;-1.96;100.00;101459.19;5093509;28;20438;-65
2024/01/09 05:48:56;;;;;;;14.07;7.77;;;;;;;-1.95;100.00;101473.94;5097460;28;20057;-67
2024/01/09 05:51:22;;;;;;;14.27;9.13;;;;;;;-1.80;100.00;101488.94;5102713;28;20043;-67
2024/01/09 05:53:47;;;;;;;14.50;8.57;;;;;;;-1.83;100.00;101468.19;5103131;28;20153;-67
2024/01/09 05:56:13;;;;;;;12.57;8.57;;;;;;;-2.14;100.00;101423.44;5100832;28;20075;-70
2024/01/09 05:58:38;;;;;;;14.50;10.03;;;;;;;-1.84;100.00;101463.03;5091788;28;20403;-68
2024/01/09 06:01:04;;;;;;;14.57;9.47;;;;;;;-1.78;100.00;101458.38;5091444;28;20028;-67
2024/01/09 06:03:31;;;;;;;11.33;9.03;;;;;;;-1.81;100.00;101463.75;5091370;28;20147;-67
2024/01/09 06:05:56;;;;;;;12.10;8.55;;;;;;;-1.95;100.00;101424.34;5092921;28;20048;-69
2024/01/09 06:08:22;;;;;;;14.30;7.93;;;;;;;-1.87;100.00;101443.13;5091703;28;20059;-68
2024/01/09 06:10:48;;;;;;;16.60;8.43;;;;;;;-1.92;100.00;101437.28;5095988;28;20161;-67
2024/01/09 06:13:14;;;;;;;9.40;7.83;;;;;;;-1.95;100.00;101430.41;5098686;28;20044;-69
2024/01/09 06:15:39;;;;;;;9.73;7.77;;;;;;;-2.08;100.00;101408.34;5095983;28;20094;-66
2024/01/09 06:18:05;;;;;;;9.47;8.43;;;;;;;-2.05;100.00;101412.59;5103034;28;20031;-67
2024/01/09 06:20:30;;;;;;;6.60;5.90;;;;;;;-2.13;100.00;101399.03;5100717;28;20027;-66
2024/01/09 06:22:56;;;;;;;10.17;6.53;;;;;;;-2.40;100.00;101365.38;5099963;28;20044;-67
2024/01/09 06:25:21;;;;;;;9.30;6.77;;;;;;;-2.34;100.00;101385.13;5101599;28;20031;-66
2024/01/09 06:27:47;;;;;;;6.43;5.80;;;;;;;-2.19;100.00;101416.66;5098952;28;20116;-67
2024/01/09 06:30:13;;;;;;;8.57;6.07;;;;;;;-2.16;100.00;101407.00;5101002;28;20048;-68
2024/01/09 06:32:39;;;;;;;11.70;5.57;;;;;;;-2.17;100.00;101408.75;5099782;28;20044;-68
2024/01/09 06:35:04;;;;;;;6.83;6.13;;;;;;;-2.29;100.00;101383.22;5100696;28;20254;-68
2024/01/09 06:37:30;;;;;;;8.13;5.50;;;;;;;-2.33;100.00;101376.41;5100545;28;20032;-67
2024/01/09 06:39:56;;;;;;;8.17;5.33;;;;;;;-2.22;100.00;101402.91;5098554;28;20115;-69
2024/01/09 06:42:21;;;;;;;8.00;5.90;;;;;;;-2.57;100.00;101352.22;5098486;28;20132;-69
2024/01/09 06:44:47;;;;;;;9.10;5.20;;;;;;;-2.23;100.00;101403.81;5098142;28;20038;-68
2024/01/09 06:47:12;;;;;;;6.17;5.33;;;;;;;-2.29;100.00;101386.66;5098489;28;20032;-66
2024/01/09 06:49:37;;;;;;;9.03;6.60;;;;;;;-2.22;100.00;101401.13;5104559;28;20039;-68
2024/01/09 06:52:03;;;;;;;10.20;6.30;;;;;;;-2.21;100.00;101399.38;5087792;28;20517;-68
2024/01/09 06:54:29;;;;;;;10.40;6.33;;;;;;;-2.25;100.00;101396.06;5103093;28;20039;-70
2024/01/09 06:56:54;;;;;;;8.00;6.47;;;;;;;-2.22;100.00;101388.09;5101057;28;20032;-69
2024/01/09 06:59:21;;;;;;;14.13;6.77;;;;;;;-2.31;100.00;101365.00;5093935;28;20039;-69
2024/01/09 07:01:48;;;;;;;10.63;6.28;;;;;;;-2.28;100.00;101364.88;5093764;28;20073;-68
2024/01/09 07:04:14;;;;;;;8.45;5.65;;;;;;;-2.37;100.00;101322.66;5093337;28;20483;-69
2024/01/09 07:06:40;;;;;;;10.23;6.07;;;;;;;-2.27;100.00;101348.31;5092559;28;20121;-68
2024/01/09 07:09:05;;;;;;;7.90;6.20;;;;;;;-2.24;100.00;101349.94;5092043;28;20195;-70
2024/01/09 07:11:31;;;;;;;8.13;6.60;;;;;;;-2.29;100.00;101352.75;5095379;28;20035;-68
2024/01/09 07:13:57;;;;;;;6.00;5.37;;;;;;;-2.29;100.00;101357.97;5104892;28;20062;-69
2024/01/09 07:16:23;;;;;;;7.10;6.37;;;;;;;-2.63;100.00;101284.66;5100131;28;20035;-71
2024/01/09 07:18:48;;;;;;;9.10;5.90;;;;;;;-2.30;100.00;101340.63;5103161;28;20038;-71
2024/01/09 07:21:14;;;;;;;5.87;4.87;;;;;;;-2.43;100.00;101302.91;5104777;28;20115;-70
2024/01/09 07:23:39;;;;;;;7.80;5.80;;;;;;;-2.27;100.00;101330.03;5104101;28;20123;-70
2024/01/09 07:26:05;;;;;;;6.97;5.77;;;;;;;-2.21;100.00;101334.13;5110085;28;20681;-72
2024/01/09 07:28:30;;;;;;;7.57;5.53;;;;;;;-2.58;100.00;101261.88;5102223;28;20144;-70
2024/01/09 07:30:56;;;;;;;6.73;4.83;;;;;;;-2.19;100.00;101354.03;5103769;28;20096;-71
2024/01/09 07:33:22;;;;;;;6.60;4.57;;;;;;;-2.15;100.00;101343.44;5108609;28;20085;-71
2024/01/09 07:35:47;;;;;;;6.83;4.70;;;;;;;-2.38;100.00;101324.44;5104934;28;20039;-70
2024/01/09 07:38:13;;;;;;;5.60;4.83;;;;;;;-2.17;100.00;101333.09;5100949;28;20740;-71
2024/01/09 07:40:38;;;;;;;7.87;4.97;;;;;;;-2.17;100.00;101340.06;5101479;28;20047;-68
2024/01/09 07:43:04;;;;;;;7.83;5.37;;;;;;;-2.16;100.00;101336.53;5083999;28;20188;-70
2024/01/09 07:45:30;;;;;;;10.00;6.00;;;;;;;-2.14;100.00;101332.09;5101418;28;20035;-69
2024/01/09 07:47:56;;;;;;;24.23;10.23;;;;;;;-2.28;100.00;101299.66;5101817;28;20520;-70
2024/01/09 07:50:22;;;;;;;33.88;12.48;;;;;;;-2.13;100.00;101323.34;5099970;28;20463;-71
2024/01/09 07:52:47;;;;;;;6.22;5.07;;;;;;;-2.32;100.00;101298.06;5104906;28;20406;-66
2024/01/09 07:55:13;;;;;;;4.57;4.03;;;;;;;-2.13;100.00;101305.09;5100395;28;20028;-69
2024/01/09 07:57:39;;;;;;;4.10;3.70;;;;;;;-2.14;100.00;101292.97;5101519;28;20039;-69
2024/01/09 08:00:05;;;;;;;4.37;3.97;;;;;;;-2.21;100.00;101288.03;5100243;28;20036;-68
2024/01/09 08:02:31;;;;;;;5.60;3.75;;;;;;;-2.29;100.00;101263.19;5095646;28;20052;-70
2024/01/09 08:04:57;;;;;;;7.20;4.50;;;;;;;-2.21;100.00;101280.19;5093652;28;20507;-69
2024/01/09 08:07:22;;;;;;;4.07;3.27;;;;;;;-2.12;100.00;101278.06;5100168;28;20040;-67
2024/01/09 08:09:48;;;;;;;6.67;4.17;;;;;;;-2.15;100.00;101265.16;5103122;28;20051;-67
2024/01/09 08:12:13;;;;;;;4.93;3.20;;;;;;;-2.23;100.00;101258.53;5107661;28;20074;-68
2024/01/09 08:14:40;;;;;;;5.87;3.60;;;;;;;-2.12;100.00;101285.91;5110613;28;20119;-68
2024/01/09 08:17:05;;;;;;;7.85;3.65;;;;;;;-2.22;100.00;101251.56;5108985;28;20476;-68
2024/01/09 08:19:31;;;;;;;4.70;4.27;;;;;;;-2.41;100.00;101220.22;5109499;28;20052;-69
2024/01/09 08:21:57;;;;;;;3.75;3.45;;;;;;;-2.15;100.00;101255.59;5109188;28;20036;-69
2024/01/09 08:24:22;;;;;;;6.27;4.60;;;;;;;-2.12;100.00;101246.75;5100428;28;20023;-67
2024/01/09 08:26:48;;;;;;;6.37;3.80;;;;;;;-2.23;100.00;101237.66;5117808;28;20051;-68
2024/01/09 08:29:16;;;;;;;5.30;3.67;;;;;;;-2.16;100.00;101248.66;5118746;28;20038;-69
2024/01/09 08:31:48;;;;;;;5.65;4.53;;;;;;;-2.10;100.00;101231.88;5116637;28;20100;-68
2024/01/09 08:34:14;;;;;;;4.18;3.78;;;;;;;-2.44;100.00;101170.81;5113585;28;20455;-69
2024/01/09 08:36:43;;;;;;;7.43;4.22;;;;;;;-2.05;100.00;101242.94;5111774;28;20036;-67
2024/01/09 08:39:13;;;;;;;7.93;3.70;;;;;;;-2.10;100.00;101239.72;5113236;28;20067;-69
2024/01/09 08:41:38;;;;;;;4.72;4.18;;;;;;;-2.19;100.00;101223.56;5111658;28;20394;-68
2024/01/09 08:44:04;;;;;;;8.00;4.03;;;;;;;-2.12;100.00;101239.78;5112741;28;20035;-68
2024/01/09 08:46:29;;;;;;;3.90;3.30;;;;;;;-2.11;100.00;101230.19;5112656;28;20036;-68
2024/01/09 08:48:55;;;;;;;4.23;3.83;;;;;;;-2.04;100.00;101232.44;5112575;28;20081;-70
2024/01/09 08:51:21;;;;;;;4.97;4.00;;;;;;;-2.15;100.00;101199.94;5112758;28;20077;-70
2024/01/09 08:53:46;;;;;;;6.30;3.87;;;;;;;-2.01;100.00;101221.03;5113536;28;20050;-69
2024/01/09 08:56:11;;;;;;;7.63;4.17;;;;;;;-2.08;100.00;101224.81;5113925;28;20042;-68
2024/01/09 08:58:37;;;;;;;4.90;4.37;;;;;;;-2.02;100.00;101238.47;5112650;28;20031;-68
2024/01/09 09:01:03;;;;;;;7.37;4.70;;;;;;;-2.06;100.00;101216.00;5111206;28;20407;-68
2024/01/09 09:03:30;;;;;;;6.07;5.10;;;;;;;-1.95;100.00;101225.97;5110796;28;20105;-69
2024/01/09 09:05:57;;;;;;;8.63;5.03;;;;;;;-1.97;100.00;101217.38;5112393;28;20036;-69
2024/01/09 09:08:22;;;;;;;6.68;5.07;;;;;;;-2.14;100.00;101178.16;5112467;28;20065;-68
2024/01/09 09:10:48;;;;;;;8.13;5.20;;;;;;;-1.96;100.00;101196.41;5112090;28;20036;-68
2024/01/09 09:13:13;;;;;;;7.50;4.73;;;;;;;-1.91;100.00;101223.13;5114548;28;20027;-68
2024/01/09 09:15:39;;;;;;;21.20;6.93;;;;;;;-1.86;100.00;101225.53;5116400;28;20553;-68
2024/01/09 09:18:04;;;;;;;13.33;6.23;;;;;;;-1.83;100.00;101237.59;5118909;28;20048;-66
2024/01/09 09:20:30;;;;;;;9.30;5.93;;;;;;;-1.96;100.00;101183.34;5119694;27;20042;-68
2024/01/09 09:22:56;;;;;;;11.77;6.67;;;;;;;-1.76;100.00;101218.94;5119797;28;20133;-67
2024/01/09 09:25:22;;;;;;;17.40;7.70;;;;;;;-1.82;100.00;101179.22;5117703;28;20036;-67
2024/01/09 09:27:48;;;;;;;15.85;7.72;;;;;;;-1.94;100.00;101160.63;5118063;28;20039;-67
2024/01/09 09:30:14;;;;;;;14.18;7.43;;;;;;;-1.73;100.00;101173.59;5114698;28;20040;-69
2024/01/09 09:32:39;;;;;;;10.97;7.10;;;;;;;-1.76;100.00;101161.50;5117492;28;20046;-68
2024/01/09 09:35:05;;;;;;;12.43;6.47;;;;;;;-1.63;100.00;101177.44;5119455;28;20270;-68
2024/01/09 09:37:31;;;;;;;9.67;6.97;;;;;;;-1.84;100.00;101150.59;5120943;28;20486;-68
2024/01/09 09:39:56;;;;;;;8.87;7.00;;;;;;;-1.70;100.00;101136.88;5121226;28;20039;-69
2024/01/09 09:42:25;;;;;;;14.57;6.80;;;;;;;-1.72;100.00;101165.69;5117741;28;20426;-69
2024/01/09 09:44:52;;;;;;;8.63;6.43;;;;;;;-1.54;100.00;101189.19;5116111;28;20040;-69
2024/01/09 09:47:21;;;;;;;12.65;6.95;;;;;;;-1.61;100.00;101179.03;5113222;28;20274;-68
2024/01/09 09:49:48;;;;;;;8.85;5.97;;;;;;;-1.77;100.00;101157.19;5113033;28;20069;-68
2024/01/09 09:52:14;;;;;;;11.15;7.03;;;;;;;-1.54;100.00;101173.50;5112434;28;20083;-67
2024/01/09 09:54:40;;;;;;;13.47;6.83;;;;;;;-1.53;100.00;101169.97;5111682;28;20106;-68
2024/01/09 09:57:06;;;;;;;10.93;6.43;;;;;;;-1.43;100.00;101179.06;5110314;28;20504;-67
2024/01/09 09:59:32;;;;;;;10.68;5.97;;;;;;;-1.50;100.00;101164.59;5111686;28;20070;-70
2024/01/09 10:02:05;;;;;;;9.27;6.22;;;;;;;-1.57;100.00;101141.41;5111621;28;20047;-71
2024/01/09 10:05:06;;;;;;;12.47;5.47;;;;;;;-1.36;100.00;101143.88;5110521;28;20059;-71
2024/01/09 10:07:35;;;;;;;8.25;5.25;;;;;;;-1.36;100.00;101142.09;5096406;28;20297;-71
2024/01/09 10:10:03;;;;;;;9.18;6.30;;;;;;;-1.36;100.00;101131.66;5113926;28;20119;-70
2024/01/09 10:12:29;;;;;;;11.88;5.60;;;;;;;-1.63;100.00;101075.59;5118778;28;20036;-69
2024/01/09 10:15:07;;;;;;;8.67;6.03;;;;;;;-1.30;100.00;101135.72;5120279;28;20036;-71
2024/01/09 10:17:36;;;;;;;20.53;6.77;;;;;;;-1.37;100.00;101097.78;5118950;28;20130;-69
2024/01/09 10:20:08;;;;;;;12.23;6.28;;;;;;;-1.24;100.00;101104.03;5118322;28;20265;-71
2024/01/09 10:22:35;;;;;;;9.33;5.53;;;;;;;-1.28;100.00;101103.38;5110340;28;20406;-69
2024/01/09 10:25:05;;;;;;;10.10;6.47;;;;;;;-1.29;100.00;101098.22;5115472;28;20270;-69
2024/01/09 10:27:36;;;;;;;11.03;6.83;;;;;;;-1.18;100.00;101108.94;5115595;28;20265;-66
2024/01/09 10:30:03;;;;;;;11.03;7.03;;;;;;;-1.29;100.00;101080.78;5115761;28;20743;-73
2024/01/09 10:32:32;;;;;;;12.23;7.03;;;;;;;-1.11;100.00;101104.28;5115271;28;20270;-70
2024/01/09 10:34:58;;;;;;;8.35;5.70;;;;;;;-1.16;100.00;101075.75;5115442;28;20035;-67
2024/01/09 10:37:24;;;;;;;16.10;7.10;;;;;;;-1.17;100.00;101071.44;5114235;28;20099;-67
2024/01/09 10:39:51;;;;;;;7.53;5.80;;;;;;;-1.06;100.00;101105.72;5116426;28;20274;-68
2024/01/09 10:42:17;;;;;;;12.93;6.00;;;;;;;-1.04;100.00;101090.78;5114521;28;20040;-70
2024/01/09 10:44:47;;;;;;;8.10;5.70;;;;;;;-1.04;100.00;101085.56;5115795;28;20272;-69
2024/01/09 10:47:14;;;;;;;7.93;5.00;;;;;;;-1.07;100.00;101074.44;5121676;28;20272;-68
2024/01/09 10:49:41;;;;;;;6.63;4.97;;;;;;;-1.04;100.00;101063.81;5117621;28;20261;-66
2024/01/09 10:52:15;;;;;;;8.97;5.80;;;;;;;-1.09;100.00;101045.75;5105090;28;20380;-72
2024/01/09 10:54:41;;;;;;;11.47;6.07;;;;;;;-1.02;100.00;101047.13;5095772;28;21062;-66
2024/01/09 10:57:12;;;;;;;9.23;5.63;;;;;;;-0.88;100.00;101053.38;5118171;28;20357;-66
2024/01/09 10:59:46;;;;;;;8.10;5.70;;;;;;;-1.76;100.00;100917.84;5119574;28;20300;-69
2024/01/09 11:02:15;;;;;;;9.80;5.60;;;;;;;-0.84;100.00;101060.16;5129586;28;20268;-68
2024/01/09 11:04:44;;;;;;;8.90;5.27;;;;;;;-0.83;100.00;101056.59;5128868;28;20276;-70
2024/01/09 11:07:11;;;;;;;;;;;;;;;-0.83;100.00;101046.97;5127158;28;20254;-70
2024/01/09 11:09:41;;;;;;;14.90;5.20;;;;;;;-0.87;100.00;101023.69;5125841;28;19942;-67
2024/01/09 11:12:09;;;;;;;9.93;6.03;;;;;;;-0.80;100.00;101045.97;5128982;28;20415;-71